sensor_id;sensor_type;location;lat;lon;timestamp;pressure;altitude;pressure_sealevel;temperature;humidity
72921;BME280;61064;51.654;5.476;2023-07-28T00:02:06;100481.50;;;18.11;100.00
72921;BME280;61064;51.654;5.476;2023-07-28T00:04:34;100487.78;;;18.12;100.00
72921;BME280;61064;51.654;5.476;2023-07-28T00:07:00;100502.88;;;18.17;100.00
72921;BME280;61064;51.654;5.476;2023-07-28T00:09:25;100500.13;;;18.19;100.00
72921;BME280;61064;51.654;5.476;2023-07-28T00:11:51;100492.94;;;18.19;100.00
72921;BME280;61064;51.654;5.476;2023-07-28T00:14:19;100482.28;;;18.16;100.00
72921;BME280;61064;51.654;5.476;2023-07-28T00:16:44;100481.47;;;18.13;100.00
72921;BME280;61064;51.654;5.476;2023-07-28T00:19:10;100493.88;;;18.18;100.00
72921;BME280;61064;51.654;5.476;2023-07-28T00:21:35;100490.41;;;18.15;100.00
72921;BME280;61064;51.654;5.476;2023-07-28T00:24:01;100486.78;;;18.16;100.00
72921;BME280;61064;51.654;5.476;2023-07-28T00:26:28;100492.97;;;18.18;100.00
72921;BME280;61064;51.654;5.476;2023-07-28T00:28:53;100484.13;;;18.14;100.00
72921;BME280;61064;51.654;5.476;2023-07-28T00:31:18;100487.75;;;18.13;100.00
72921;BME280;61064;51.654;5.476;2023-07-28T00:33:44;100487.69;;;18.15;100.00
72921;BME280;61064;51.654;5.476;2023-07-28T00:36:09;100487.66;;;18.16;100.00
72921;BME280;61064;51.654;5.476;2023-07-28T00:38:37;100480.44;;;18.17;100.00
72921;BME280;61064;51.654;5.476;2023-07-28T00:41:03;100481.38;;;18.16;100.00
72921;BME280;61064;51.654;5.476;2023-07-28T00:43:29;100474.28;;;18.13;100.00
72921;BME280;61064;51.654;5.476;2023-07-28T00:45:54;100477.13;;;18.09;100.00
72921;BME280;61064;51.654;5.476;2023-07-28T00:48:20;100485.00;;;18.15;100.00
72921;BME280;61064;51.654;5.476;2023-07-28T00:50:47;100490.25;;;18.19;100.00
72921;BME280;61064;51.654;5.476;2023-07-28T00:53:13;100489.38;;;18.19;100.00
72921;BME280;61064;51.654;5.476;2023-07-28T00:55:39;100493.09;;;18.15;100.00
72921;BME280;61064;51.654;5.476;2023-07-28T00:58:04;100489.41;;;18.17;100.00
72921;BME280;61064;51.654;5.476;2023-07-28T01:00:30;100484.97;;;18.16;100.00
72921;BME280;61064;51.654;5.476;2023-07-28T01:02:56;100476.09;;;18.13;100.00
72921;BME280;61064;51.654;5.476;2023-07-28T01:05:26;100494.66;;;18.22;100.00
72921;BME280;61064;51.654;5.476;2023-07-28T01:07:59;100491.16;;;18.18;100.00
72921;BME280;61064;51.654;5.476;2023-07-28T01:10:31;100503.59;;;18.22;100.00
72921;BME280;61064;51.654;5.476;2023-07-28T01:12:59;100494.66;;;18.22;100.00
72921;BME280;61064;51.654;5.476;2023-07-28T01:15:25;100500.06;;;18.22;100.00
72921;BME280;61064;51.654;5.476;2023-07-28T01:17:54;100447.22;;;17.89;100.00
72921;BME280;61064;51.654;5.476;2023-07-28T01:21:03;100419.06;;;17.71;100.00
72921;BME280;61064;51.654;5.476;2023-07-28T01:28:51;100507.16;;;18.24;100.00
72921;BME280;61064;51.654;5.476;2023-07-28T01:31:17;100508.94;;;18.24;100.00
72921;BME280;61064;51.654;5.476;2023-07-28T01:33:42;100496.41;;;18.23;100.00
72921;BME280;61064;51.654;5.476;2023-07-28T01:36:08;100504.41;;;18.26;100.00
72921;BME280;61064;51.654;5.476;2023-07-28T01:38:33;100502.59;;;18.26;100.00
72921;BME280;61064;51.654;5.476;2023-07-28T01:40:59;100500.84;;;18.25;100.00
72921;BME280;61064;51.654;5.476;2023-07-28T01:43:26;100516.00;;;18.28;100.00
72921;BME280;61064;51.654;5.476;2023-07-28T01:45:51;100507.09;;;18.26;100.00
72921;BME280;61064;51.654;5.476;2023-07-28T01:48:17;100511.50;;;18.28;100.00
72921;BME280;61064;51.654;5.476;2023-07-28T01:50:42;100505.22;;;18.28;100.00
72921;BME280;61064;51.654;5.476;2023-07-28T01:53:08;100514.16;;;18.30;100.00
72921;BME280;61064;51.654;5.476;2023-07-28T01:55:34;100504.31;;;18.29;100.00
72921;BME280;61064;51.654;5.476;2023-07-28T01:58:00;100516.84;;;18.30;100.00
72921;BME280;61064;51.654;5.476;2023-07-28T02:00:27;100514.16;;;18.30;100.00
72921;BME280;61064;51.654;5.476;2023-07-28T02:02:53;100503.38;;;18.30;100.00
72921;BME280;61064;51.654;5.476;2023-07-28T02:05:19;100510.50;;;18.33;100.00
72921;BME280;61064;51.654;5.476;2023-07-28T02:07:45;100509.53;;;18.34;100.00
72921;BME280;61064;51.654;5.476;2023-07-28T02:10:12;100497.97;;;18.32;100.00
72921;BME280;61064;51.654;5.476;2023-07-28T02:12:38;100493.44;;;18.32;100.00
72921;BME280;61064;51.654;5.476;2023-07-28T02:15:05;100497.97;;;18.32;100.00
72921;BME280;61064;51.654;5.476;2023-07-28T02:17:31;100497.16;;;18.28;100.00
72921;BME280;61064;51.654;5.476;2023-07-28T02:19:56;100510.44;;;18.34;100.00
72921;BME280;61064;51.654;5.476;2023-07-28T02:22:22;100504.16;;;18.34;100.00
72921;BME280;61064;51.654;5.476;2023-07-28T02:24:47;100496.97;;;18.34;100.00
72921;BME280;61064;51.654;5.476;2023-07-28T02:27:13;100498.88;;;18.31;100.00
72921;BME280;61064;51.654;5.476;2023-07-28T02:29:38;100501.44;;;18.35;100.00
72921;BME280;61064;51.654;5.476;2023-07-28T02:32:04;100505.00;;;18.36;100.00
72921;BME280;61064;51.654;5.476;2023-07-28T02:34:29;100503.19;;;18.36;100.00
72921;BME280;61064;51.654;5.476;2023-07-28T02:36:55;100497.81;;;18.36;100.00
72921;BME280;61064;51.654;5.476;2023-07-28T02:39:20;100495.25;;;18.32;100.00
72921;BME280;61064;51.654;5.476;2023-07-28T02:41:46;100496.16;;;18.32;100.00
72921;BME280;61064;51.654;5.476;2023-07-28T02:44:12;100513.19;;;18.33;100.00
72921;BME280;61064;51.654;5.476;2023-07-28T02:46:37;100510.50;;;18.33;100.00
72921;BME280;61064;51.654;5.476;2023-07-28T02:49:02;100506.03;;;18.32;100.00
72921;BME280;61064;51.654;5.476;2023-07-28T02:51:29;100510.53;;;18.31;100.00
72921;BME280;61064;51.654;5.476;2023-07-28T02:53:55;100519.47;;;18.33;100.00
72921;BME280;61064;51.654;5.476;2023-07-28T02:56:20;100520.38;;;18.32;100.00
72921;BME280;61064;51.654;5.476;2023-07-28T02:58:47;100529.34;;;18.33;100.00
72921;BME280;61064;51.654;5.476;2023-07-28T03:01:13;100525.78;;;18.32;100.00
72921;BME280;61064;51.654;5.476;2023-07-28T03:03:38;100538.34;;;18.32;100.00
72921;BME280;61064;51.654;5.476;2023-07-28T03:06:04;100520.53;;;18.27;100.00
72921;BME280;61064;51.654;5.476;2023-07-28T03:08:30;100529.44;;;18.29;100.00
72921;BME280;61064;51.654;5.476;2023-07-28T03:10:59;100526.72;;;18.29;100.00
72921;BME280;61064;51.654;5.476;2023-07-28T03:13:24;100525.84;;;18.29;100.00
72921;BME280;61064;51.654;5.476;2023-07-28T03:15:50;100508.13;;;18.22;100.00
72921;BME280;61064;51.654;5.476;2023-07-28T03:18:15;100528.53;;;18.29;100.00
72921;BME280;61064;51.654;5.476;2023-07-28T03:20:40;100527.66;;;18.28;100.00
72921;BME280;61064;51.654;5.476;2023-07-28T03:23:06;100525.03;;;18.27;100.00
72921;BME280;61064;51.654;5.476;2023-07-28T03:25:31;100535.72;;;18.28;100.00
72921;BME280;61064;51.654;5.476;2023-07-28T03:27:57;100536.59;;;18.31;100.00
72921;BME280;61064;51.654;5.476;2023-07-28T03:30:22;100543.81;;;18.28;100.00
72921;BME280;61064;51.654;5.476;2023-07-28T03:32:47;100533.13;;;18.27;100.00
72921;BME280;61064;51.654;5.476;2023-07-28T03:35:13;100524.16;;;18.26;100.00
72921;BME280;61064;51.654;5.476;2023-07-28T03:37:38;100517.00;;;18.25;100.00
72921;BME280;61064;51.654;5.476;2023-07-28T03:40:04;100530.31;;;18.30;100.00
72921;BME280;61064;51.654;5.476;2023-07-28T03:42:31;100531.25;;;18.29;100.00
72921;BME280;61064;51.654;5.476;2023-07-28T03:44:57;100525.84;;;18.29;100.00
72921;BME280;61064;51.654;5.476;2023-07-28T03:47:23;100537.53;;;18.28;100.00
72921;BME280;61064;51.654;5.476;2023-07-28T03:49:48;100542.00;;;18.29;100.00
72921;BME280;61064;51.654;5.476;2023-07-28T03:52:13;100548.28;;;18.29;100.00
72921;BME280;61064;51.654;5.476;2023-07-28T03:54:39;100541.31;;;18.22;100.00
72921;BME280;61064;51.654;5.476;2023-07-28T03:57:04;100555.47;;;18.29;100.00
72921;BME280;61064;51.654;5.476;2023-07-28T03:59:30;100549.19;;;18.28;100.00
72921;BME280;61064;51.654;5.476;2023-07-28T04:01:55;100538.59;;;18.22;100.00
72921;BME280;61064;51.654;5.476;2023-07-28T04:04:20;100546.66;;;18.24;100.00
72921;BME280;61064;51.654;5.476;2023-07-28T04:06:47;100556.34;;;18.29;100.00
72921;BME280;61064;51.654;5.476;2023-07-28T04:09:15;100559.94;;;18.30;100.00
72921;BME280;61064;51.654;5.476;2023-07-28T04:11:41;100544.81;;;18.26;100.00
72921;BME280;61064;51.654;5.476;2023-07-28T04:14:07;100551.81;;;18.32;100.00
72921;BME280;61064;51.654;5.476;2023-07-28T04:16:33;100557.22;;;18.32;100.00
72921;BME280;61064;51.654;5.476;2023-07-28T04:18:58;100549.28;;;18.27;100.00
72921;BME280;61064;51.654;5.476;2023-07-28T04:21:24;100558.97;;;18.33;100.00
72921;BME280;61064;51.654;5.476;2023-07-28T04:23:49;100558.97;;;18.33;100.00
72921;BME280;61064;51.654;5.476;2023-07-28T04:26:16;100554.47;;;18.33;100.00
72921;BME280;61064;51.654;5.476;2023-07-28T04:28:42;100542.94;;;18.28;100.00
72921;BME280;61064;51.654;5.476;2023-07-28T04:31:08;100550.94;;;18.31;100.00
72921;BME280;61064;51.654;5.476;2023-07-28T04:33:33;100553.59;;;18.33;100.00
72921;BME280;61064;51.654;5.476;2023-07-28T04:35:59;100541.19;;;18.27;100.00
72921;BME280;61064;51.654;5.476;2023-07-28T04:38:24;100559.78;;;18.35;100.00
72921;BME280;61064;51.654;5.476;2023-07-28T04:40:50;100553.66;;;18.29;100.00
72921;BME280;61064;51.654;5.476;2023-07-28T04:43:15;100558.03;;;18.34;100.00
72921;BME280;61064;51.654;5.476;2023-07-28T04:45:40;100557.09;;;18.35;100.00
72921;BME280;61064;51.654;5.476;2023-07-28T04:48:06;100550.94;;;18.31;100.00
72921;BME280;61064;51.654;5.476;2023-07-28T04:50:31;100565.19;;;18.35;100.00
72921;BME280;61064;51.654;5.476;2023-07-28T04:52:59;100548.25;;;18.31;100.00
72921;BME280;61064;51.654;5.476;2023-07-28T04:55:24;100544.81;;;18.26;100.00
72921;BME280;61064;51.654;5.476;2023-07-28T04:57:52;100562.50;;;18.35;100.00
72921;BME280;61064;51.654;5.476;2023-07-28T05:00:17;100557.25;;;18.30;100.00
72921;BME280;61064;51.654;5.476;2023-07-28T05:02:43;100571.38;;;18.38;100.00
72921;BME280;61064;51.654;5.476;2023-07-28T05:05:08;100567.81;;;18.38;100.00
72921;BME280;61064;51.654;5.476;2023-07-28T05:07:33;100562.50;;;18.35;100.00
72921;BME280;61064;51.654;5.476;2023-07-28T05:09:59;100567.72;;;18.39;100.00
72921;BME280;61064;51.654;5.476;2023-07-28T05:12:24;100559.72;;;18.38;100.00
72921;BME280;61064;51.654;5.476;2023-07-28T05:14:49;100564.22;;;18.37;100.00
72921;BME280;61064;51.654;5.476;2023-07-28T05:17:15;100567.69;;;18.41;100.00
72921;BME280;61064;51.654;5.476;2023-07-28T05:19:40;100575.75;;;18.42;100.00
72921;BME280;61064;51.654;5.476;2023-07-28T05:22:06;100578.50;;;18.39;100.00
72921;BME280;61064;51.654;5.476;2023-07-28T05:24:32;100590.00;;;18.46;100.00
72921;BME280;61064;51.654;5.476;2023-07-28T05:26:58;100586.53;;;18.41;100.00
72921;BME280;61064;51.654;5.476;2023-07-28T05:29:24;100582.06;;;18.41;100.00
72921;BME280;61064;51.654;5.476;2023-07-28T05:31:49;100593.59;;;18.45;100.00
72921;BME280;61064;51.654;5.476;2023-07-28T05:34:14;100600.69;;;18.49;100.00
72921;BME280;61064;51.654;5.476;2023-07-28T05:36:42;100582.81;;;18.45;100.00
72921;BME280;61064;51.654;5.476;2023-07-28T05:39:09;100598.81;;;18.51;100.00
72921;BME280;61064;51.654;5.476;2023-07-28T05:41:36;100578.31;;;18.45;100.00
72921;BME280;61064;51.654;5.476;2023-07-28T05:44:02;100597.09;;;18.48;100.00
72921;BME280;61064;51.654;5.476;2023-07-28T05:46:28;100593.53;;;18.48;100.00
72921;BME280;61064;51.654;5.476;2023-07-28T05:48:55;100606.81;;;18.54;100.00
72921;BME280;61064;51.654;5.476;2023-07-28T05:51:21;100597.84;;;18.55;100.00
72921;BME280;61064;51.654;5.476;2023-07-28T05:53:47;100598.72;;;18.55;100.00
72921;BME280;61064;51.654;5.476;2023-07-28T05:56:12;100609.44;;;18.57;100.00
72921;BME280;61064;51.654;5.476;2023-07-28T05:58:38;100600.53;;;18.55;100.00
72921;BME280;61064;51.654;5.476;2023-07-28T06:01:03;100608.50;;;18.58;100.00
72921;BME280;61064;51.654;5.476;2023-07-28T06:03:28;100608.47;;;18.59;100.00
72921;BME280;61064;51.654;5.476;2023-07-28T06:05:54;100611.94;;;18.63;100.00
72921;BME280;61064;51.654;5.476;2023-07-28T06:08:19;100598.72;;;18.54;100.00
72921;BME280;61064;51.654;5.476;2023-07-28T06:10:45;100594.19;;;18.56;100.00
72921;BME280;61064;51.654;5.476;2023-07-28T06:13:10;100611.88;;;18.66;100.00
72921;BME280;61064;51.654;5.476;2023-07-28T06:15:39;100610.91;;;18.67;100.00
72921;BME280;61064;51.654;5.476;2023-07-28T06:18:04;100615.31;;;18.71;100.00
72921;BME280;61064;51.654;5.476;2023-07-28T06:20:30;100618.94;;;18.70;100.00
72921;BME280;61064;51.654;5.476;2023-07-28T06:22:55;100620.59;;;18.74;100.00
72921;BME280;61064;51.654;5.476;2023-07-28T06:25:20;100622.31;;;18.77;100.00
72921;BME280;61064;51.654;5.476;2023-07-28T06:27:46;100628.59;;;18.77;100.00
72921;BME280;61064;51.654;5.476;2023-07-28T06:30:12;100619.63;;;18.77;100.00
72921;BME280;61064;51.654;5.476;2023-07-28T06:32:38;100624.94;;;18.78;100.00
72921;BME280;61064;51.654;5.476;2023-07-28T06:35:03;100615.94;;;18.79;100.00
72921;BME280;61064;51.654;5.476;2023-07-28T06:37:30;100635.53;;;18.84;100.00
72921;BME280;61064;51.654;5.476;2023-07-28T06:39:56;100640.91;;;18.86;100.00
72921;BME280;61064;51.654;5.476;2023-07-28T06:42:22;100638.13;;;18.89;100.00
72921;BME280;61064;51.654;5.476;2023-07-28T06:44:52;100638.16;;;18.87;100.00
72921;BME280;61064;51.654;5.476;2023-07-28T06:47:18;100642.44;;;18.94;100.00
72921;BME280;61064;51.654;5.476;2023-07-28T06:49:43;100635.16;;;18.96;100.00
72921;BME280;61064;51.654;5.476;2023-07-28T06:52:09;100640.50;;;18.99;100.00
72921;BME280;61064;51.654;5.476;2023-07-28T06:54:36;100646.75;;;19.00;100.00
72921;BME280;61064;51.654;5.476;2023-07-28T06:57:01;100652.00;;;19.04;100.00
72921;BME280;61064;51.654;5.476;2023-07-28T06:59:27;100639.59;;;18.99;100.00
72921;BME280;61064;51.654;5.476;2023-07-28T07:01:52;100648.16;;;19.11;100.00
72921;BME280;61064;51.654;5.476;2023-07-28T07:04:19;100657.09;;;19.14;100.00
72921;BME280;61064;51.654;5.476;2023-07-28T07:06:44;100646.31;;;19.14;100.00
72921;BME280;61064;51.654;5.476;2023-07-28T07:09:10;100664.13;;;19.19;100.00
72921;BME280;61064;51.654;5.476;2023-07-28T07:11:39;100657.94;;;19.16;100.00
72921;BME280;61064;51.654;5.476;2023-07-28T07:14:05;100667.50;;;19.26;100.00
72921;BME280;61064;51.654;5.476;2023-07-28T07:16:30;100663.91;;;19.25;100.00
72921;BME280;61064;51.654;5.476;2023-07-28T07:18:56;100655.06;;;19.22;100.00
72921;BME280;61064;51.654;5.476;2023-07-28T07:21:21;100655.63;;;19.31;100.00
72921;BME280;61064;51.654;5.476;2023-07-28T07:23:47;100668.97;;;19.36;100.00
72921;BME280;61064;51.654;5.476;2023-07-28T07:26:14;100680.69;;;19.35;100.00
72921;BME280;61064;51.654;5.476;2023-07-28T07:28:40;100667.47;;;19.27;100.00
72921;BME280;61064;51.654;5.476;2023-07-28T07:31:12;100667.31;;;19.32;100.00
72921;BME280;61064;51.654;5.476;2023-07-28T07:33:38;100676.97;;;19.39;100.00
72921;BME280;61064;51.654;5.476;2023-07-28T07:36:04;100677.03;;;19.37;100.00
72921;BME280;61064;51.654;5.476;2023-07-28T07:38:30;100681.50;;;19.38;100.00
72921;BME280;61064;51.654;5.476;2023-07-28T07:40:55;100679.75;;;19.36;100.00
72921;BME280;61064;51.654;5.476;2023-07-28T07:43:20;100685.94;;;19.39;100.00
72921;BME280;61064;51.654;5.476;2023-07-28T07:45:46;100675.22;;;19.38;100.00
72921;BME280;61064;51.654;5.476;2023-07-28T07:48:15;100689.44;;;19.43;100.00
72921;BME280;61064;51.654;5.476;2023-07-28T07:50:40;100695.59;;;19.48;100.00
72921;BME280;61064;51.654;5.476;2023-07-28T07:53:06;100699.19;;;19.48;100.00
72921;BME280;61064;51.654;5.476;2023-07-28T07:55:31;100692.91;;;19.48;100.00
72921;BME280;61064;51.654;5.476;2023-07-28T07:57:57;100698.19;;;19.51;100.00
72921;BME280;61064;51.654;5.476;2023-07-28T08:00:23;100676.69;;;19.48;100.00
72921;BME280;61064;51.654;5.476;2023-07-28T08:02:49;100686.38;;;19.55;100.00
72921;BME280;61064;51.654;5.476;2023-07-28T08:05:15;100682.81;;;19.53;100.00
72921;BME280;61064;51.654;5.476;2023-07-28T08:07:40;100697.78;;;19.63;100.00
72921;BME280;61064;51.654;5.476;2023-07-28T08:10:06;100694.03;;;19.67;100.00
72921;BME280;61064;51.654;5.476;2023-07-28T08:12:32;100709.38;;;19.67;100.00
72921;BME280;61064;51.654;5.476;2023-07-28T08:14:57;100702.97;;;19.69;100.00
72921;BME280;61064;51.654;5.476;2023-07-28T08:17:23;100701.13;;;19.71;100.00
72921;BME280;61064;51.654;5.476;2023-07-28T08:19:48;100709.16;;;19.73;100.00
72921;BME280;61064;51.654;5.476;2023-07-28T08:22:14;100703.91;;;19.68;100.00
72921;BME280;61064;51.654;5.476;2023-07-28T08:24:39;100699.44;;;19.67;100.00
72921;BME280;61064;51.654;5.476;2023-07-28T08:27:05;100695.81;;;19.68;100.00
72921;BME280;61064;51.654;5.476;2023-07-28T08:29:31;100709.31;;;19.68;100.00
72921;BME280;61064;51.654;5.476;2023-07-28T08:31:56;100710.03;;;19.73;100.00
72921;BME280;61064;51.654;5.476;2023-07-28T08:34:21;100711.03;;;19.71;100.00
72921;BME280;61064;51.654;5.476;2023-07-28T08:36:47;100707.28;;;19.75;100.00
72921;BME280;61064;51.654;5.476;2023-07-28T08:39:12;100721.44;;;19.83;100.00
72921;BME280;61064;51.654;5.476;2023-07-28T08:41:40;100724.16;;;19.81;100.00
72921;BME280;61064;51.654;5.476;2023-07-28T08:44:07;100728.47;;;19.87;100.00
72921;BME280;61064;51.654;5.476;2023-07-28T08:46:32;100723.16;;;19.84;100.00
72921;BME280;61064;51.654;5.476;2023-07-28T08:48:59;100730.28;;;19.86;100.00
72921;BME280;61064;51.654;5.476;2023-07-28T08:51:25;100728.66;;;19.82;100.00
72921;BME280;61064;51.654;5.476;2023-07-28T08:53:51;100719.69;;;19.80;100.00
72921;BME280;61064;51.654;5.476;2023-07-28T08:56:16;100729.41;;;19.86;100.00
72921;BME280;61064;51.654;5.476;2023-07-28T08:58:42;100723.16;;;19.84;100.00
72921;BME280;61064;51.654;5.476;2023-07-28T09:01:07;100729.63;;;19.80;100.00
72921;BME280;61064;51.654;5.476;2023-07-28T09:03:33;100735.75;;;19.85;100.00
72921;BME280;61064;51.654;5.476;2023-07-28T09:06:03;100735.38;;;19.96;100.00
72921;BME280;61064;51.654;5.476;2023-07-28T09:08:32;100730.78;;;19.99;100.00
72921;BME280;61064;51.654;5.476;2023-07-28T09:11:02;100729.59;;;20.06;100.00
72921;BME280;61064;51.654;5.476;2023-07-28T09:13:35;100735.69;;;20.13;100.00
72921;BME280;61064;51.654;5.476;2023-07-28T09:16:01;100741.75;;;20.19;100.00
72921;BME280;61064;51.654;5.476;2023-07-28T09:18:26;100734.44;;;20.23;100.00
72921;BME280;61064;51.654;5.476;2023-07-28T09:20:55;100738.56;;;20.34;100.00
72921;BME280;61064;51.654;5.476;2023-07-28T09:23:30;100739.13;;;20.44;100.00
72921;BME280;61064;51.654;5.476;2023-07-28T09:26:02;100750.44;;;20.55;100.00
72921;BME280;61064;51.654;5.476;2023-07-28T09:28:39;100741.97;;;20.64;100.00
72921;BME280;61064;51.654;5.476;2023-07-28T09:31:05;100730.78;;;20.75;99.73
72921;BME280;61064;51.654;5.476;2023-07-28T09:33:32;100742.13;;;20.85;99.26
72921;BME280;61064;51.654;5.476;2023-07-28T09:36:07;100743.84;;;20.87;98.54
72921;BME280;61064;51.654;5.476;2023-07-28T09:38:36;100739.13;;;20.92;98.60
72921;BME280;61064;51.654;5.476;2023-07-28T09:41:04;100728.31;;;20.92;98.32
72921;BME280;61064;51.654;5.476;2023-07-28T09:43:33;100739.88;;;20.96;97.98
72921;BME280;61064;51.654;5.476;2023-07-28T09:45:58;100736.06;;;21.01;97.97
72921;BME280;61064;51.654;5.476;2023-07-28T09:48:25;100734.25;;;21.02;97.65
72921;BME280;61064;51.654;5.476;2023-07-28T09:50:53;100735.09;;;21.04;97.58
72921;BME280;61064;51.654;5.476;2023-07-28T09:53:19;100738.50;;;21.09;97.55
72921;BME280;61064;51.654;5.476;2023-07-28T09:55:47;100740.94;;;21.17;97.60
72921;BME280;61064;51.654;5.476;2023-07-28T09:58:17;100736.34;;;21.19;97.16
72921;BME280;61064;51.654;5.476;2023-07-28T10:00:43;100738.63;;;21.29;96.84
72921;BME280;61064;51.654;5.476;2023-07-28T10:03:10;100747.03;;;21.45;96.43
72921;BME280;61064;51.654;5.476;2023-07-28T10:05:36;100728.09;;;21.45;96.01
72921;BME280;61064;51.654;5.476;2023-07-28T10:08:02;100736.56;;;21.57;95.74
72921;BME280;61064;51.654;5.476;2023-07-28T10:10:28;100748.63;;;21.72;95.27
72921;BME280;61064;51.654;5.476;2023-07-28T10:12:54;100733.19;;;21.74;94.96
72921;BME280;61064;51.654;5.476;2023-07-28T10:15:29;100742.44;;;21.90;94.57
72921;BME280;61064;51.654;5.476;2023-07-28T10:17:56;100740.34;;;21.98;94.10
72921;BME280;61064;51.654;5.476;2023-07-28T10:20:36;100738.56;;;21.97;93.58
72921;BME280;61064;51.654;5.476;2023-07-28T10:25:32;100747.59;;;22.18;92.83
72921;BME280;61064;51.654;5.476;2023-07-28T10:27:59;100746.13;;;22.31;92.62
72921;BME280;61064;51.654;5.476;2023-07-28T10:30:24;100755.63;;;22.42;91.89
72921;BME280;61064;51.654;5.476;2023-07-28T10:32:50;100746.47;;;22.44;91.36
72921;BME280;61064;51.654;5.476;2023-07-28T10:37:44;100750.28;;;22.60;90.93
72921;BME280;61064;51.654;5.476;2023-07-28T10:42:52;100729.84;;;22.73;90.69
72921;BME280;61064;51.654;5.476;2023-07-28T10:45:28;100746.00;;;22.95;90.00
72921;BME280;61064;51.654;5.476;2023-07-28T10:47:55;100747.34;;;23.05;89.37
72921;BME280;61064;51.654;5.476;2023-07-28T10:50:28;100741.03;;;23.05;88.80
72921;BME280;61064;51.654;5.476;2023-07-28T10:53:00;100738.97;;;23.10;88.31
72921;BME280;61064;51.654;5.476;2023-07-28T10:55:30;100739.78;;;23.12;87.91
72921;BME280;61064;51.654;5.476;2023-07-28T10:57:56;100729.13;;;23.07;88.06
72921;BME280;61064;51.654;5.476;2023-07-28T11:00:27;100730.84;;;23.10;87.63
72921;BME280;61064;51.654;5.476;2023-07-28T11:02:54;100747.66;;;23.18;87.70
72921;BME280;61064;51.654;5.476;2023-07-28T11:05:27;100737.28;;;23.26;87.55
72921;BME280;61064;51.654;5.476;2023-07-28T11:07:58;100713.22;;;23.18;87.03
72921;BME280;61064;51.654;5.476;2023-07-28T11:10:25;100733.41;;;23.32;86.80
72921;BME280;61064;51.654;5.476;2023-07-28T11:12:53;100726.22;;;23.31;86.55
72921;BME280;61064;51.654;5.476;2023-07-28T11:15:19;100729.38;;;23.40;86.18
72921;BME280;61064;51.654;5.476;2023-07-28T11:17:50;100734.66;;;23.43;85.83
72921;BME280;61064;51.654;5.476;2023-07-28T11:20:24;100745.31;;;23.48;85.52
72921;BME280;61064;51.654;5.476;2023-07-28T11:22:57;100730.72;;;23.50;85.27
72921;BME280;61064;51.654;5.476;2023-07-28T11:25:25;100723.53;;;23.49;85.33
72921;BME280;61064;51.654;5.476;2023-07-28T11:27:51;100735.97;;;23.72;85.42
72921;BME280;61064;51.654;5.476;2023-07-28T11:30:18;100722.34;;;23.91;84.35
72921;BME280;61064;51.654;5.476;2023-07-28T11:32:47;100729.31;;;24.14;84.43
72921;BME280;61064;51.654;5.476;2023-07-28T11:35:14;100713.84;;;24.33;83.04
72921;BME280;61064;51.654;5.476;2023-07-28T11:37:42;100718.78;;;24.59;81.96
72921;BME280;61064;51.654;5.476;2023-07-28T11:40:09;100723.66;;;24.70;81.19
72921;BME280;61064;51.654;5.476;2023-07-28T11:42:41;100716.22;;;24.73;80.78
72921;BME280;61064;51.654;5.476;2023-07-28T11:45:09;100723.97;;;24.81;79.41
72921;BME280;61064;51.654;5.476;2023-07-28T11:47:35;100730.91;;;24.86;79.81
72921;BME280;61064;51.654;5.476;2023-07-28T11:50:03;100718.13;;;24.89;79.93
72921;BME280;61064;51.654;5.476;2023-07-28T11:52:33;100721.97;;;25.02;79.72
72921;BME280;61064;51.654;5.476;2023-07-28T11:55:00;100717.41;;;25.18;79.29
72921;BME280;61064;51.654;5.476;2023-07-28T11:57:29;100718.66;;;25.28;78.11
72921;BME280;61064;51.654;5.476;2023-07-28T11:59:58;100731.59;;;25.40;78.48
72921;BME280;61064;51.654;5.476;2023-07-28T12:02:28;100729.56;;;25.59;77.29
72921;BME280;61064;51.654;5.476;2023-07-28T12:04:54;100732.66;;;25.69;76.32
72921;BME280;61064;51.654;5.476;2023-07-28T12:07:31;100717.19;;;25.70;75.63
72921;BME280;61064;51.654;5.476;2023-07-28T12:10:02;100714.81;;;25.79;75.29
72921;BME280;61064;51.654;5.476;2023-07-28T12:12:38;100712.94;;;25.95;74.91
72921;BME280;61064;51.654;5.476;2023-07-28T12:15:24;100717.47;;;26.11;74.26
72921;BME280;61064;51.654;5.476;2023-07-28T12:18:13;100728.28;;;26.28;73.40
72921;BME280;61064;51.654;5.476;2023-07-28T12:20:43;100723.72;;;26.28;72.36
72921;BME280;61064;51.654;5.476;2023-07-28T12:23:23;100723.50;;;26.31;71.58
72921;BME280;61064;51.654;5.476;2023-07-28T12:25:49;100735.13;;;26.35;71.49
72921;BME280;61064;51.654;5.476;2023-07-28T12:28:23;100726.47;;;26.42;71.72
72921;BME280;61064;51.654;5.476;2023-07-28T12:30:50;100732.25;;;26.52;70.70
72921;BME280;61064;51.654;5.476;2023-07-28T12:33:21;100732.13;;;26.54;70.14
72921;BME280;61064;51.654;5.476;2023-07-28T12:35:47;100735.75;;;26.54;70.28
72921;BME280;61064;51.654;5.476;2023-07-28T12:38:15;100739.56;;;26.52;69.92
72921;BME280;61064;51.654;5.476;2023-07-28T12:40:41;100737.72;;;26.52;70.08
72921;BME280;61064;51.654;5.476;2023-07-28T12:43:06;100724.53;;;26.44;69.69
72921;BME280;61064;51.654;5.476;2023-07-28T12:45:31;100739.13;;;26.43;69.31
72921;BME280;61064;51.654;5.476;2023-07-28T12:47:57;100740.66;;;26.33;69.25
72921;BME280;61064;51.654;5.476;2023-07-28T12:50:23;100737.50;;;26.25;68.93
72921;BME280;61064;51.654;5.476;2023-07-28T12:52:49;100748.00;;;26.17;68.93
72921;BME280;61064;51.654;5.476;2023-07-28T12:55:18;100739.03;;;25.99;69.32